< < Back
Terminal Aerodrome Forecast


Current Version              Previous Versions:   1  2  3  4  5  6  7  8  9  

Terminal Aerodrome Forecast

979
FTUS42 KGSP 250538
TAFAVL
TAF
KAVL 250538Z 2506/2606 00000KT P6SM SCT070
     FM251700 19006KT P6SM BKN060
     FM260200 00000KT P6SM BKN070=



Latest METAR

130
SAUS70 KWBC 252200
MTRAVL
METAR KAVL 252154Z 17007KT 10SM SCT075 26/13 A3022 RMK AO2 SLP216
T02560128


USA.gov is the U.S. government's official web portal to all federal, state and local government web resources and services.